UTTT/TAS METAR and TAF weather

Enter ICAO airport designator
Station Type Date Time Source
UTTT METAR 2020/02/19 14:30 UTC NOAA

UTTT 191430Z 02004KT 340V050 4000 FU NSC 03/M05 Q1032 R08R/CLRD70 NOSIG


Station Type Date Time Source
UTTT Decoded METAR 2020/02/19 14:30 UTC NOAA

Tashkent, Uzbekistan (UTTT) 41-16N 069-16E 488M
Feb 19, 2020 - 09:30 AM EST / 2020.02.19 1430 UTC
Wind: from the NNE (020 degrees) at 5 MPH (4 KT) (direction variable):0
Visibility: 2 mile(s):0
Weather: smoke
Temperature: 37 F (3 C)
Dew Point: 23 F (-5 C)
Relative Humidity: 55%
Pressure (altimeter): 30.47 in. Hg (1032 hPa)
ob: UTTT 191430Z 02004KT 340V050 4000 FU NSC 03/M05 Q1032 R08R/CLRD70 NOSIG
cycle: 14

Station Type Date Time Source
UTTT TAF 2020/02/19 12:09 UTC NOAA

TAF UTTT 191100Z 1912/2012 35010KT 7000 NSC
TEMPO 1915/1924 15008KT 1500 BR SCT010
TEMPO 2000/2004 VRB02KT 0800 FG SCT007

Example: see airport list